createdAt,value
2018-02-14T00:02:05.009Z,3.07
2018-02-14T00:04:32.470Z,2.80
2018-02-14T00:06:59.934Z,2.58
2018-02-14T00:09:27.397Z,2.97
2018-02-14T00:11:54.861Z,3.22
2018-02-14T00:14:22.317Z,2.45
2018-02-14T00:16:49.789Z,2.47
2018-02-14T00:19:19.071Z,1.87
2018-02-14T00:21:46.809Z,2.78
2018-02-14T00:24:14.294Z,1.58
2018-02-14T00:26:41.781Z,2.17
2018-02-14T00:29:09.245Z,2.23
2018-02-14T00:31:36.714Z,3.15
2018-02-14T00:34:04.162Z,0.90
2018-02-14T00:36:31.603Z,2.17
2018-02-14T00:38:59.053Z,1.65
2018-02-14T00:41:26.535Z,2.08
2018-02-14T00:43:53.973Z,0.77
2018-02-14T00:46:21.437Z,3.00
2018-02-14T00:48:48.901Z,1.60
2018-02-14T00:51:16.367Z,2.78
2018-02-14T00:53:43.847Z,2.72
2018-02-14T00:56:11.297Z,1.95
2018-02-14T00:58:38.772Z,1.30
2018-02-14T01:01:06.228Z,1.90
2018-02-14T01:03:33.678Z,2.35
2018-02-14T01:06:01.132Z,2.05
2018-02-14T01:08:28.581Z,2.75
2018-02-14T01:10:56.028Z,1.90
2018-02-14T01:13:24.268Z,1.50
2018-02-14T01:15:51.721Z,2.83
2018-02-14T01:18:19.192Z,3.60
2018-02-14T01:20:46.645Z,2.58
2018-02-14T01:23:14.116Z,1.95
2018-02-14T01:25:41.589Z,2.62
2018-02-14T01:28:09.044Z,4.00
2018-02-14T01:30:36.507Z,3.00
2018-02-14T01:33:04.069Z,1.80
2018-02-14T01:35:31.520Z,2.03
2018-02-14T01:37:58.993Z,1.60
2018-02-14T01:40:26.450Z,3.03
2018-02-14T01:42:53.903Z,1.98
2018-02-14T01:45:21.358Z,1.20
2018-02-14T01:47:48.797Z,2.57
2018-02-14T01:50:16.276Z,2.12
2018-02-14T01:52:43.727Z,1.65
2018-02-14T01:55:11.188Z,3.00
2018-02-14T01:57:38.649Z,2.53
2018-02-14T02:00:06.099Z,2.60
2018-02-14T02:02:33.576Z,1.33
2018-02-14T02:05:01.020Z,1.30
2018-02-14T02:07:28.488Z,2.33
2018-02-14T02:09:55.940Z,3.20
2018-02-14T02:12:24.135Z,2.47
2018-02-14T02:14:51.585Z,2.47
2018-02-14T02:17:20.334Z,2.30
2018-02-14T02:19:47.802Z,1.10
2018-02-14T02:22:15.263Z,2.00
2018-02-14T02:24:42.734Z,2.92
2018-02-14T02:27:10.187Z,2.60
2018-02-14T02:29:37.633Z,3.17
2018-02-14T02:32:05.153Z,1.50
2018-02-14T02:34:32.725Z,3.40
2018-02-14T02:37:00.173Z,3.33
2018-02-14T02:39:39.471Z,1.83
2018-02-14T02:42:08.873Z,3.47
2018-02-14T02:44:36.334Z,1.05
2018-02-14T02:47:03.801Z,1.05
2018-02-14T02:49:32.030Z,2.12
2018-02-14T02:51:59.499Z,2.83
2018-02-14T02:54:26.973Z,1.10
2018-02-14T02:56:54.432Z,4.15
2018-02-14T02:59:21.917Z,4.68
2018-02-14T03:01:49.404Z,2.67
2018-02-14T03:04:16.861Z,2.37
2018-02-14T03:06:44.324Z,3.12
2018-02-14T03:09:11.797Z,1.10
2018-02-14T03:11:39.281Z,2.15
2018-02-14T03:14:06.751Z,1.00
2018-02-14T03:16:34.202Z,3.22
2018-02-14T03:19:01.654Z,5.18
2018-02-14T03:21:29.124Z,1.85
2018-02-14T03:23:56.595Z,1.75
2018-02-14T03:26:24.062Z,1.83
2018-02-14T03:28:51.517Z,1.80
2018-02-14T03:31:19.209Z,2.15
2018-02-14T03:33:46.668Z,2.33
2018-02-14T03:36:14.892Z,2.83
2018-02-14T03:38:42.355Z,1.35
2018-02-14T03:41:09.813Z,2.72
2018-02-14T03:43:37.265Z,2.25
2018-02-14T03:46:04.754Z,2.95
2018-02-14T03:48:32.231Z,1.48
2018-02-14T03:50:59.724Z,2.30
2018-02-14T03:53:27.195Z,0.95
2018-02-14T03:55:54.651Z,1.23
2018-02-14T03:58:22.119Z,2.33
2018-02-14T04:00:51.014Z,3.37
2018-02-14T04:03:18.471Z,3.13
2018-02-14T04:05:45.925Z,1.50
2018-02-14T04:08:13.370Z,2.05
2018-02-14T04:10:40.847Z,2.70
2018-02-14T04:13:08.280Z,1.98
2018-02-14T04:15:35.744Z,1.12
2018-02-14T04:18:03.192Z,3.47
2018-02-14T04:20:30.649Z,1.65
2018-02-14T04:22:58.104Z,2.55
2018-02-14T04:25:25.548Z,3.30
2018-02-14T04:27:53.010Z,3.12
2018-02-14T04:30:23.381Z,2.15
2018-02-14T04:32:50.841Z,1.90
2018-02-14T04:35:18.308Z,1.52
2018-02-14T04:37:45.764Z,2.47
2018-02-14T04:40:13.240Z,3.60
2018-02-14T04:42:40.696Z,2.35
2018-02-14T04:45:08.145Z,2.08
2018-02-14T04:47:35.642Z,4.03
2018-02-14T04:50:03.102Z,2.65
2018-02-14T04:52:30.571Z,1.55
2018-02-14T04:54:58.029Z,3.45
2018-02-14T04:57:25.474Z,2.50
2018-02-14T04:59:52.933Z,1.67
2018-02-14T05:02:20.408Z,2.45
2018-02-14T05:04:48.616Z,3.83
2018-02-14T05:07:16.199Z,1.85
2018-02-14T05:09:43.666Z,2.92
2018-02-14T05:12:11.139Z,1.95
2018-02-14T05:14:38.593Z,3.12
2018-02-14T05:17:06.052Z,1.52
2018-02-14T05:19:33.524Z,1.58
2018-02-14T05:22:00.966Z,2.28
2018-02-14T05:24:28.446Z,3.30
2018-02-14T05:26:55.909Z,3.28
2018-02-14T05:29:23.357Z,4.18
2018-02-14T05:31:50.830Z,3.30
2018-02-14T05:34:18.278Z,3.08
2018-02-14T05:36:45.740Z,3.03
2018-02-14T05:39:13.204Z,2.17
2018-02-14T05:41:40.670Z,2.22
2018-02-14T05:44:08.390Z,2.05
2018-02-14T05:46:35.846Z,2.95
2018-02-14T05:49:04.063Z,2.85
2018-02-14T05:51:31.525Z,3.05
2018-02-14T05:53:58.976Z,3.08
2018-02-14T05:56:26.436Z,2.97
2018-02-14T05:58:53.884Z,2.50
2018-02-14T06:01:23.449Z,1.50
2018-02-14T06:03:50.894Z,2.85
2018-02-14T06:06:18.337Z,3.03
2018-02-14T06:08:45.789Z,1.95
2018-02-14T06:11:13.228Z,2.33
2018-02-14T06:13:40.705Z,2.42
2018-02-14T06:16:08.186Z,2.15
2018-02-14T06:18:35.647Z,2.33
2018-02-14T06:21:03.114Z,3.75
2018-02-14T06:23:30.556Z,6.50
2018-02-14T06:25:58.046Z,7.00
2018-02-14T06:28:25.537Z,5.70
2018-02-14T06:30:53.760Z,4.25
2018-02-14T06:33:21.206Z,6.82
2018-02-14T06:35:48.652Z,8.02
2018-02-14T06:38:16.129Z,4.57
2018-02-14T06:40:43.606Z,7.75
2018-02-14T06:43:11.025Z,3.70
2018-02-14T06:45:38.592Z,3.60
2018-02-14T06:48:06.796Z,3.60
2018-02-14T06:50:34.438Z,1.75
2018-02-14T06:53:01.905Z,3.53
2018-02-14T06:55:29.348Z,2.92
2018-02-14T06:57:56.808Z,1.92
2018-02-14T07:00:24.260Z,6.37
2018-02-14T07:02:51.733Z,3.33
2018-02-14T07:05:19.180Z,2.90
2018-02-14T07:07:46.624Z,3.60
2018-02-14T07:10:14.095Z,2.45
2018-02-14T07:12:41.541Z,2.87
2018-02-14T07:15:09.008Z,4.05
2018-02-14T07:17:36.461Z,6.00
2018-02-14T07:20:03.913Z,6.45
2018-02-14T07:22:31.371Z,4.68
2018-02-14T07:24:58.824Z,4.72
2018-02-14T07:27:27.040Z,8.00
2018-02-14T07:29:54.493Z,3.25
2018-02-14T07:32:21.953Z,4.20
2018-02-14T07:34:49.408Z,6.80
2018-02-14T07:37:16.857Z,8.73
2018-02-14T07:39:44.315Z,6.10
2018-02-14T07:42:11.768Z,5.18
2018-02-14T07:44:39.243Z,6.43
2018-02-14T07:47:07.149Z,9.05
2018-02-14T07:49:34.597Z,9.68
2018-02-14T07:52:02.073Z,8.02
2018-02-14T07:54:29.516Z,5.00
2018-02-14T07:56:56.970Z,5.47
2018-02-14T07:59:24.428Z,3.00
2018-02-14T08:01:51.882Z,4.50
2018-02-14T08:04:19.334Z,6.22
2018-02-14T08:06:46.781Z,6.00
2018-02-14T08:09:15.019Z,6.18
2018-02-14T08:11:42.436Z,5.57
2018-02-14T08:14:09.876Z,5.60
2018-02-14T08:16:37.326Z,7.45
2018-02-14T08:19:04.769Z,6.30
2018-02-14T08:21:32.239Z,6.13
2018-02-14T08:23:59.681Z,6.97
2018-02-14T08:26:27.110Z,5.83
2018-02-14T08:28:54.564Z,5.30
2018-02-14T08:31:22.009Z,5.20
2018-02-14T08:33:49.466Z,5.95
2018-02-14T08:36:17.669Z,6.90
2018-02-14T08:38:45.133Z,6.00
2018-02-14T08:41:12.593Z,5.97
2018-02-14T08:43:40.031Z,6.60
2018-02-14T08:46:07.488Z,6.43
2018-02-14T08:48:35.220Z,5.97
2018-02-14T08:51:02.682Z,7.90
2018-02-14T08:53:30.501Z,8.60
2018-02-14T08:56:02.372Z,6.13
2018-02-14T08:58:29.813Z,5.87
2018-02-14T09:00:58.039Z,7.43
2018-02-14T09:03:25.495Z,5.67
2018-02-14T09:05:52.940Z,7.20
2018-02-14T09:08:21.134Z,6.55
2018-02-14T09:10:48.560Z,5.60
2018-02-14T09:13:16.016Z,7.07
2018-02-14T09:15:45.447Z,5.77
2018-02-14T09:18:13.053Z,6.57
2018-02-14T09:20:40.540Z,6.90
2018-02-14T09:23:07.951Z,5.37
2018-02-14T09:25:35.648Z,5.30
2018-02-14T09:28:03.111Z,6.90
2018-02-14T09:30:30.543Z,5.97
2018-02-14T09:32:58.126Z,5.60
2018-02-14T09:35:25.583Z,6.17
2018-02-14T09:37:53.050Z,7.60
2018-02-14T09:40:20.503Z,6.32
2018-02-14T09:42:47.940Z,7.00
2018-02-14T09:45:15.389Z,6.50
2018-02-14T09:47:42.874Z,6.23
2018-02-14T09:50:10.333Z,7.40
2018-02-14T09:52:37.765Z,6.67
2018-02-14T09:55:05.230Z,6.23
2018-02-14T09:57:33.440Z,6.18
2018-02-14T10:00:00.881Z,6.53
2018-02-14T10:02:28.316Z,6.17
2018-02-14T10:04:55.923Z,6.53
2018-02-14T10:07:23.349Z,5.20
2018-02-14T10:09:50.818Z,7.10
2018-02-14T10:12:18.256Z,6.50
2018-02-14T10:14:45.802Z,6.13
2018-02-14T10:17:13.258Z,6.00
2018-02-14T10:19:40.727Z,6.55
2018-02-14T10:22:08.181Z,6.75
2018-02-14T10:24:35.622Z,6.83
2018-02-14T10:27:03.073Z,5.70
2018-02-14T10:29:30.794Z,7.93
2018-02-14T10:31:58.247Z,7.37
2018-02-14T10:34:25.702Z,6.45
2018-02-14T10:36:53.150Z,7.20
2018-02-14T10:39:20.620Z,6.53
2018-02-14T10:41:48.071Z,6.53
2018-02-14T10:44:15.517Z,6.80
2018-02-14T10:46:42.972Z,7.10
2018-02-14T10:49:10.426Z,7.90
2018-02-14T10:51:37.958Z,6.83
2018-02-14T10:54:05.411Z,6.33
2018-02-14T10:56:32.921Z,6.40
2018-02-14T10:59:00.391Z,6.73
2018-02-14T11:01:33.543Z,5.73
2018-02-14T11:04:06.617Z,5.90
2018-02-14T11:06:35.734Z,6.43
2018-02-14T11:09:03.201Z,5.13
2018-02-14T11:11:30.950Z,6.63
2018-02-14T11:13:58.401Z,6.50
2018-02-14T11:16:25.875Z,6.57
2018-02-14T11:18:53.309Z,6.33
2018-02-14T11:21:20.801Z,7.50
2018-02-14T11:23:48.341Z,6.80
2018-02-14T11:26:15.771Z,5.90
2018-02-14T11:28:43.772Z,5.63
2018-02-14T11:31:11.213Z,5.97
2018-02-14T11:33:38.765Z,6.10
2018-02-14T11:36:06.458Z,5.77
2018-02-14T11:38:33.899Z,5.23
2018-02-14T11:41:01.338Z,6.30
2018-02-14T11:43:28.850Z,5.90
2018-02-14T11:45:56.287Z,5.87
2018-02-14T11:48:23.729Z,6.63
2018-02-14T11:50:58.393Z,5.70
2018-02-14T11:53:25.833Z,6.40
2018-02-14T11:55:53.298Z,6.47
2018-02-14T11:58:20.756Z,6.80
2018-02-14T12:00:54.447Z,5.73
2018-02-14T12:03:24.123Z,7.43
2018-02-14T12:05:51.579Z,5.97
2018-02-14T12:08:19.038Z,5.70
2018-02-14T12:10:46.482Z,6.43
2018-02-14T12:13:13.924Z,6.10
2018-02-14T12:15:41.380Z,5.40
2018-02-14T12:18:08.830Z,5.47
2018-02-14T12:20:36.276Z,5.20
2018-02-14T12:23:04.489Z,5.80
2018-02-14T12:25:31.929Z,5.87
2018-02-14T12:27:59.400Z,5.80
2018-02-14T12:30:26.852Z,6.10
2018-02-14T12:32:54.302Z,6.00
2018-02-14T12:35:21.760Z,5.47
2018-02-14T12:37:49.985Z,4.80
2018-02-14T12:40:17.446Z,6.10
2018-02-14T12:42:44.905Z,5.80
2018-02-14T12:45:12.355Z,4.87
2018-02-14T12:47:39.824Z,5.20
2018-02-14T12:50:07.286Z,4.93
2018-02-14T12:52:34.749Z,4.55
2018-02-14T12:55:02.206Z,5.60
2018-02-14T12:57:29.670Z,6.93
2018-02-14T13:00:01.302Z,4.50
2018-02-14T13:02:28.825Z,5.80
2018-02-14T13:04:56.285Z,6.17
2018-02-14T13:07:23.743Z,6.00
2018-02-14T13:09:51.196Z,5.00
2018-02-14T13:12:18.653Z,6.13
2018-02-14T13:14:46.144Z,6.03
2018-02-14T13:17:13.601Z,5.57
2018-02-14T13:19:41.037Z,6.50
2018-02-14T13:22:10.628Z,5.87
2018-02-14T13:24:38.110Z,5.07
2018-02-14T13:27:09.413Z,5.70
2018-02-14T13:29:37.643Z,6.75
2018-02-14T13:32:05.858Z,5.40
2018-02-14T13:34:34.065Z,5.60
2018-02-14T13:37:01.529Z,5.27
2018-02-14T13:39:28.977Z,5.32
2018-02-14T13:41:57.210Z,5.53
2018-02-14T13:44:24.673Z,4.70
2018-02-14T13:46:52.113Z,5.17
2018-02-14T13:49:19.577Z,4.83
2018-02-14T13:51:48.059Z,4.20
2018-02-14T13:54:18.076Z,5.33
2018-02-14T13:56:45.650Z,3.63
2018-02-14T13:59:13.098Z,5.17
2018-02-14T14:01:40.562Z,3.73
2018-02-14T14:04:08.005Z,4.70
2018-02-14T14:06:35.473Z,3.77
2018-02-14T14:09:02.921Z,4.67
2018-02-14T14:11:30.388Z,3.40
2018-02-14T14:13:57.838Z,4.83
2018-02-14T14:16:26.042Z,4.20
2018-02-14T14:18:53.506Z,3.53
2018-02-14T14:21:20.968Z,4.50
2018-02-14T14:23:48.420Z,4.27
2018-02-14T14:26:15.893Z,4.57
2018-02-14T14:28:43.485Z,3.50
2018-02-14T14:31:10.961Z,3.70
2018-02-14T14:33:38.400Z,3.67
2018-02-14T14:36:05.858Z,2.90
2018-02-14T14:38:33.312Z,3.47
2018-02-14T14:41:00.835Z,3.53
2018-02-14T14:43:28.279Z,3.40
2018-02-14T14:45:55.730Z,4.50
2018-02-14T14:48:23.197Z,2.70
2018-02-14T14:50:50.629Z,3.13
2018-02-14T14:53:19.040Z,3.70
2018-02-14T14:55:46.752Z,3.63
2018-02-14T14:58:14.210Z,2.80
2018-02-14T15:00:41.686Z,3.50
2018-02-14T15:03:09.186Z,3.63
2018-02-14T15:05:36.636Z,3.77
2018-02-14T15:08:04.074Z,3.70
2018-02-14T15:10:31.516Z,3.17
2018-02-14T15:12:59.330Z,3.23
2018-02-14T15:15:26.769Z,3.30
2018-02-14T15:17:54.204Z,2.70
2018-02-14T15:20:21.640Z,2.50
2018-02-14T15:22:51.893Z,3.77
2018-02-14T15:25:19.344Z,3.37
2018-02-14T15:27:46.784Z,2.87
2018-02-14T15:30:14.281Z,3.63
2018-02-14T15:32:41.722Z,4.60
2018-02-14T15:37:52.382Z,3.03
2018-02-14T15:40:19.810Z,3.87
2018-02-14T15:42:48.025Z,3.43
2018-02-14T15:45:15.488Z,2.60
2018-02-14T15:47:45.166Z,4.60
2018-02-14T15:50:12.600Z,4.27
2018-02-14T15:52:40.040Z,3.67
2018-02-14T15:55:07.491Z,3.87
2018-02-14T15:57:36.438Z,2.77
2018-02-14T16:00:03.879Z,3.53
2018-02-14T16:02:32.096Z,2.90
2018-02-14T16:04:59.530Z,2.50
2018-02-14T16:07:26.980Z,3.30
2018-02-14T16:09:54.416Z,2.70
2018-02-14T16:12:21.854Z,2.50
2018-02-14T16:14:49.409Z,2.40
2018-02-14T16:17:16.852Z,3.70
2018-02-14T16:19:44.297Z,2.10
2018-02-14T16:22:12.012Z,2.90
2018-02-14T16:24:39.551Z,3.87
2018-02-14T16:27:06.903Z,2.83
2018-02-14T16:29:34.352Z,3.37
2018-02-14T16:32:01.800Z,3.87
2018-02-14T16:34:29.296Z,4.03
2018-02-14T16:36:56.699Z,3.27
2018-02-14T16:39:24.160Z,3.47
2018-02-14T16:41:51.621Z,4.93
2018-02-14T16:44:19.065Z,2.83
2018-02-14T16:46:46.522Z,2.97
2018-02-14T16:49:15.474Z,3.20
2018-02-14T16:51:42.936Z,5.07
2018-02-14T16:54:10.398Z,4.50
2018-02-14T16:56:37.829Z,4.33
2018-02-14T16:59:06.036Z,3.83
2018-02-14T17:01:33.501Z,2.60
2018-02-14T17:04:00.935Z,4.07
2018-02-14T17:06:29.150Z,2.80
2018-02-14T17:08:56.615Z,6.70
2018-02-14T17:11:24.158Z,4.50
2018-02-14T17:13:52.345Z,4.73
2018-02-14T17:16:19.810Z,4.25
2018-02-14T17:18:47.266Z,4.00
2018-02-14T17:21:14.813Z,3.67
2018-02-14T17:23:42.276Z,3.70
2018-02-14T17:26:09.718Z,6.40
2018-02-14T17:28:37.176Z,4.07
2018-02-14T17:31:04.629Z,3.57
2018-02-14T17:33:32.088Z,4.60
2018-02-14T17:35:59.529Z,3.90
2018-02-14T17:38:26.972Z,5.83
2018-02-14T17:40:54.428Z,3.93
2018-02-14T17:43:21.893Z,4.90
2018-02-14T17:45:53.002Z,3.43
2018-02-14T17:48:21.216Z,5.23
2018-02-14T17:50:48.645Z,3.90
2018-02-14T17:53:16.096Z,5.10
2018-02-14T17:55:43.541Z,4.40
2018-02-14T17:58:12.485Z,4.73
2018-02-14T18:00:39.945Z,5.10
2018-02-14T18:03:07.395Z,3.13
2018-02-14T18:05:34.838Z,4.60
2018-02-14T18:08:02.304Z,3.73
2018-02-14T18:10:29.733Z,4.80
2018-02-14T18:12:57.202Z,5.43
2018-02-14T18:15:24.660Z,2.90
2018-02-14T18:17:52.093Z,4.43
2018-02-14T18:20:19.541Z,4.57
2018-02-14T18:22:46.974Z,3.53
2018-02-14T18:25:14.465Z,4.10
2018-02-14T18:27:41.866Z,5.00
2018-02-14T18:30:09.309Z,7.20
2018-02-14T18:32:36.773Z,5.93
2018-02-14T18:35:04.228Z,5.37
2018-02-14T18:37:31.679Z,7.90
2018-02-14T18:39:59.130Z,5.57
2018-02-14T18:42:26.833Z,5.20
2018-02-14T18:44:54.312Z,5.30
2018-02-14T18:47:21.759Z,4.87
2018-02-14T18:49:49.229Z,3.20
2018-02-14T18:52:16.672Z,6.40
2018-02-14T18:54:44.110Z,5.77
2018-02-14T18:57:11.562Z,4.70
2018-02-14T18:59:39.014Z,3.60
2018-02-14T19:02:06.472Z,3.47
2018-02-14T19:04:34.683Z,4.47
2018-02-14T19:07:02.124Z,6.70
2018-02-14T19:09:29.564Z,5.00
2018-02-14T19:11:57.798Z,4.80
2018-02-14T19:14:25.247Z,3.90
2018-02-14T19:16:52.678Z,3.77
2018-02-14T19:19:23.678Z,4.20
2018-02-14T19:21:51.122Z,3.93
2018-02-14T19:24:19.420Z,3.70
2018-02-14T19:26:46.861Z,3.23
2018-02-14T19:29:14.306Z,4.07
2018-02-14T19:34:17.355Z,4.27
2018-02-14T19:36:44.825Z,4.20
2018-02-14T19:39:12.266Z,3.80
2018-02-14T19:41:39.719Z,3.63
2018-02-14T19:44:07.181Z,5.63
2018-02-14T19:46:34.621Z,4.07
2018-02-14T19:49:02.077Z,3.47
2018-02-14T19:51:29.553Z,4.73
2018-02-14T19:53:56.981Z,3.33
2018-02-14T19:56:25.205Z,5.27
2018-02-14T19:58:52.645Z,3.63
2018-02-14T20:01:20.114Z,3.57
2018-02-14T20:03:47.549Z,5.10
2018-02-14T20:06:14.992Z,6.80
2018-02-14T20:08:42.475Z,4.37
2018-02-14T20:11:09.908Z,5.50
2018-02-14T20:13:37.353Z,4.07
2018-02-14T20:16:04.806Z,3.80
2018-02-14T20:18:32.245Z,4.83
2018-02-14T20:20:59.704Z,3.83
2018-02-14T20:23:27.150Z,5.20
2018-02-14T20:25:54.597Z,5.90
2018-02-14T20:28:22.065Z,4.90
2018-02-14T20:30:53.159Z,6.20
2018-02-14T20:33:20.612Z,5.57
2018-02-14T20:35:48.316Z,4.67
2018-02-14T20:38:15.753Z,3.60
2018-02-14T20:40:43.209Z,5.90
2018-02-14T20:43:10.696Z,4.47
2018-02-14T20:45:38.107Z,5.20
2018-02-14T20:48:05.566Z,4.63
2018-02-14T20:50:33.008Z,5.20
2018-02-14T20:53:00.457Z,6.67
2018-02-14T20:55:27.901Z,4.20
2018-02-14T20:57:55.352Z,5.37
2018-02-14T21:00:22.801Z,5.90
2018-02-14T21:02:50.266Z,3.57
2018-02-14T21:05:17.716Z,7.73
2018-02-14T21:07:45.164Z,6.60
2018-02-14T21:10:12.636Z,7.07
2018-02-14T21:12:40.096Z,6.40
2018-02-14T21:15:07.661Z,4.30
2018-02-14T21:17:35.112Z,4.47
2018-02-14T21:20:02.552Z,4.60
2018-02-14T21:22:30.008Z,4.80
2018-02-14T21:24:57.441Z,4.80
2018-02-14T21:27:24.878Z,2.87
2018-02-14T21:29:52.339Z,3.27
2018-02-14T21:32:19.781Z,5.73
2018-02-14T21:34:47.250Z,6.13
2018-02-14T21:37:14.697Z,6.23
2018-02-14T21:39:42.133Z,4.90
2018-02-14T21:42:09.628Z,3.37
2018-02-14T21:44:37.075Z,3.13
2018-02-14T21:47:04.525Z,4.80
2018-02-14T21:49:31.970Z,3.77
2018-02-14T21:51:59.419Z,2.83
2018-02-14T21:54:26.866Z,4.23
2018-02-14T21:56:54.303Z,2.80
2018-02-14T21:59:21.784Z,4.67
2018-02-14T22:01:49.228Z,3.57
2018-02-14T22:04:16.658Z,5.70
2018-02-14T22:06:44.131Z,4.50
2018-02-14T22:09:11.581Z,3.70
2018-02-14T22:11:39.097Z,3.13
2018-02-14T22:14:06.669Z,6.60
2018-02-14T22:16:34.116Z,3.80
2018-02-14T22:19:01.557Z,4.90
2018-02-14T22:21:29.007Z,3.30
2018-02-14T22:23:56.493Z,4.23
2018-02-14T22:26:23.934Z,3.67
2018-02-14T22:28:51.369Z,5.17
2018-02-14T22:31:18.851Z,3.33
2018-02-14T22:33:46.292Z,5.57
2018-02-14T22:36:13.735Z,3.90
2018-02-14T22:38:41.169Z,4.30
2018-02-14T22:41:10.125Z,4.13
2018-02-14T22:43:37.588Z,5.03
2018-02-14T22:46:05.033Z,5.10
2018-02-14T22:48:32.489Z,4.40
2018-02-14T22:50:59.958Z,5.93
2018-02-14T22:53:27.428Z,4.47
2018-02-14T22:55:54.873Z,3.13
2018-02-14T22:58:23.071Z,4.00
2018-02-14T23:00:53.980Z,4.60
2018-02-14T23:05:55.444Z,3.13
2018-02-14T23:08:22.880Z,4.27
2018-02-14T23:10:50.325Z,5.60
2018-02-14T23:13:17.776Z,4.70
2018-02-14T23:15:45.849Z,3.20
2018-02-14T23:18:13.293Z,3.67
2018-02-14T23:20:40.756Z,5.80
2018-02-14T23:23:08.185Z,3.50
2018-02-14T23:25:35.649Z,5.80
2018-02-14T23:28:03.089Z,3.97
2018-02-14T23:30:30.565Z,6.40
2018-02-14T23:32:58.015Z,5.97
2018-02-14T23:35:25.461Z,4.73
2018-02-14T23:37:52.918Z,3.67
2018-02-14T23:40:20.358Z,3.53
2018-02-14T23:42:48.471Z,5.00
2018-02-14T23:45:15.921Z,4.43
2018-02-14T23:47:43.355Z,4.50
2018-02-14T23:50:10.808Z,6.30
2018-02-14T23:52:38.265Z,5.07
2018-02-14T23:55:05.727Z,4.30
2018-02-14T23:57:33.176Z,5.10
